createdAt,value
2019-05-25T00:00:12.809Z,7.93
2019-05-25T00:02:42.207Z,8.50
2019-05-25T00:05:11.695Z,7.90
2019-05-25T00:07:41.037Z,8.10
2019-05-25T00:10:10.460Z,7.33
2019-05-25T00:12:39.779Z,7.10
2019-05-25T00:15:09.221Z,6.87
2019-05-25T00:17:38.580Z,6.90
2019-05-25T00:20:07.997Z,6.00
2019-05-25T00:22:37.342Z,6.20
2019-05-25T00:25:06.751Z,6.23
2019-05-25T00:27:36.073Z,6.10
2019-05-25T00:30:05.771Z,6.30
2019-05-25T00:32:35.103Z,6.60
2019-05-25T00:35:04.516Z,6.17
2019-05-25T00:37:33.886Z,6.67
2019-05-25T00:40:03.272Z,6.33
2019-05-25T00:42:32.632Z,6.70
2019-05-25T00:45:01.975Z,6.73
2019-05-25T00:47:31.313Z,6.37
2019-05-25T00:50:00.638Z,6.30
2019-05-25T00:52:29.932Z,6.57
2019-05-25T00:54:59.316Z,6.20
2019-05-25T00:57:28.638Z,6.97
2019-05-25T00:59:58.041Z,6.57
2019-05-25T01:02:27.360Z,7.03
2019-05-25T01:04:56.713Z,6.63
2019-05-25T01:07:26.162Z,6.37
2019-05-25T01:09:55.482Z,6.80
2019-05-25T01:12:24.794Z,6.97
2019-05-25T01:14:54.616Z,7.23
2019-05-25T01:17:23.957Z,7.50
2019-05-25T01:19:53.280Z,8.77
2019-05-25T01:22:22.594Z,8.30
2019-05-25T01:24:52.013Z,9.50
2019-05-25T01:27:21.326Z,8.53
2019-05-25T01:29:50.686Z,8.10
2019-05-25T01:32:20.008Z,8.50
2019-05-25T01:34:49.381Z,9.27
2019-05-25T01:37:18.724Z,9.93
2019-05-25T01:39:48.177Z,10.07
2019-05-25T01:42:17.508Z,9.47
2019-05-25T01:44:46.867Z,9.30
2019-05-25T01:47:16.315Z,9.93
2019-05-25T01:49:45.633Z,10.07
2019-05-25T01:52:14.950Z,9.67
2019-05-25T01:54:58.837Z,9.53
2019-05-25T01:57:15.408Z,9.30
2019-05-25T01:59:44.730Z,8.70
2019-05-25T02:02:14.057Z,9.90
2019-05-25T02:04:43.508Z,9.00
2019-05-25T02:07:12.916Z,9.20
2019-05-25T02:09:42.371Z,9.23
2019-05-25T02:12:11.702Z,9.97
2019-05-25T02:14:41.062Z,9.33
2019-05-25T02:17:10.403Z,9.13
2019-05-25T02:19:39.710Z,9.03
2019-05-25T02:22:09.032Z,9.63
2019-05-25T02:24:38.408Z,9.93
2019-05-25T02:27:07.774Z,9.50
2019-05-25T02:29:37.127Z,10.80
2019-05-25T02:32:06.474Z,10.03
2019-05-25T02:34:35.840Z,10.47
2019-05-25T02:37:05.546Z,10.17
2019-05-25T02:39:34.861Z,9.83
2019-05-25T02:42:05.078Z,10.67
2019-05-25T02:44:34.479Z,10.90
2019-05-25T02:47:03.847Z,10.20
2019-05-25T02:49:33.173Z,10.23
2019-05-25T02:52:02.523Z,10.17
2019-05-25T02:54:32.004Z,10.30
2019-05-25T02:57:01.448Z,10.80
2019-05-25T02:59:30.828Z,10.60
2019-05-25T03:02:00.166Z,9.93
2019-05-25T03:04:29.554Z,10.70
2019-05-25T03:06:59.186Z,10.67
2019-05-25T03:09:30.577Z,10.77
2019-05-25T03:12:00.722Z,10.63
2019-05-25T03:14:30.099Z,10.13
2019-05-25T03:16:59.841Z,11.10
2019-05-25T03:19:29.235Z,10.20
2019-05-25T03:21:58.584Z,11.07
2019-05-25T03:24:27.990Z,11.00
2019-05-25T03:26:57.341Z,11.30
2019-05-25T03:29:27.169Z,10.90
2019-05-25T03:31:56.864Z,10.53
2019-05-25T03:34:26.249Z,10.30
2019-05-25T03:36:55.586Z,11.00
2019-05-25T03:39:24.989Z,10.77
2019-05-25T03:41:54.336Z,10.70
2019-05-25T03:44:23.703Z,11.77
2019-05-25T03:46:53.054Z,11.23
2019-05-25T03:49:22.427Z,10.90
2019-05-25T03:51:51.745Z,10.30
2019-05-25T03:54:21.182Z,11.23
2019-05-25T03:56:50.526Z,11.37
2019-05-25T03:59:19.916Z,12.00
2019-05-25T04:01:49.240Z,11.40
2019-05-25T04:04:18.617Z,11.20
2019-05-25T04:06:47.944Z,10.67
2019-05-25T04:09:17.331Z,10.83
2019-05-25T04:11:46.698Z,19.77
2019-05-25T04:14:16.067Z,12.87
2019-05-25T04:16:45.406Z,25.17
2019-05-25T04:19:14.806Z,13.77
2019-05-25T04:21:44.151Z,12.97
2019-05-25T04:24:16.979Z,13.50
2019-05-25T04:26:46.329Z,12.97
2019-05-25T04:29:15.705Z,12.97
2019-05-25T04:31:45.027Z,13.07
2019-05-25T04:34:14.411Z,12.90
2019-05-25T04:36:43.766Z,12.57
2019-05-25T04:39:13.187Z,12.03
2019-05-25T04:41:42.515Z,12.30
2019-05-25T04:44:11.900Z,11.60
2019-05-25T04:46:41.233Z,14.23
2019-05-25T04:49:10.620Z,14.23
2019-05-25T04:51:40.042Z,13.87
2019-05-25T04:54:09.410Z,14.40
2019-05-25T04:56:40.353Z,13.43
2019-05-25T04:59:09.701Z,12.73
2019-05-25T05:01:39.087Z,13.53
2019-05-25T05:04:08.556Z,11.17
2019-05-25T05:06:37.990Z,11.63
2019-05-25T05:09:08.323Z,12.23
2019-05-25T05:11:37.655Z,10.67
2019-05-25T05:14:07.127Z,11.67
2019-05-25T05:16:36.451Z,13.10
2019-05-25T05:19:06.044Z,12.90
2019-05-25T05:21:35.382Z,12.83
2019-05-25T05:24:04.773Z,13.10
2019-05-25T05:26:34.121Z,9.80
2019-05-25T05:29:03.598Z,10.77
2019-05-25T05:31:32.991Z,6.47
2019-05-25T05:34:02.405Z,6.93
2019-05-25T05:36:34.037Z,7.50
2019-05-25T05:39:04.803Z,7.53
2019-05-25T05:41:38.266Z,6.30
2019-05-25T05:44:07.727Z,6.10
2019-05-25T05:46:38.519Z,6.20
2019-05-25T05:49:13.565Z,5.33
2019-05-25T05:51:45.810Z,5.87
2019-05-25T05:54:17.548Z,5.77
2019-05-25T05:56:47.004Z,6.00
2019-05-25T05:59:16.458Z,6.20
2019-05-25T06:01:45.817Z,6.70
2019-05-25T06:04:15.139Z,6.10
2019-05-25T06:06:44.497Z,6.87
2019-05-25T06:09:13.820Z,7.07
2019-05-25T06:11:43.130Z,7.10
2019-05-25T06:14:12.478Z,7.80
2019-05-25T06:16:41.812Z,7.93
2019-05-25T06:19:11.209Z,9.20
2019-05-25T06:21:40.534Z,7.80
2019-05-25T06:24:09.866Z,8.37
2019-05-25T06:26:39.207Z,8.57
2019-05-25T06:29:08.611Z,8.40
2019-05-25T06:31:37.927Z,8.17
2019-05-25T06:34:07.351Z,8.60
2019-05-25T06:36:36.697Z,8.33
2019-05-25T06:39:08.009Z,8.13
2019-05-25T06:41:37.320Z,8.53
2019-05-25T06:44:06.686Z,8.57
2019-05-25T06:46:39.096Z,8.97
2019-05-25T06:49:07.102Z,8.80
2019-05-25T06:51:36.469Z,9.03
2019-05-25T06:54:05.819Z,9.33
2019-05-25T06:56:35.184Z,9.60
2019-05-25T06:59:04.732Z,9.00
2019-05-25T07:01:34.079Z,9.53
2019-05-25T07:04:03.401Z,8.87
2019-05-25T07:06:32.759Z,8.57
2019-05-25T07:09:02.154Z,8.60
2019-05-25T07:11:31.472Z,8.80
2019-05-25T07:14:00.841Z,8.70
2019-05-25T07:16:30.176Z,7.60
2019-05-25T07:18:59.513Z,7.60
2019-05-25T07:21:28.948Z,7.73
2019-05-25T07:23:58.300Z,8.57
2019-05-25T07:26:27.631Z,8.03
2019-05-25T07:28:56.977Z,6.83
2019-05-25T07:31:26.426Z,6.73
2019-05-25T07:33:55.768Z,6.45
2019-05-25T07:36:25.184Z,6.80
2019-05-25T07:38:54.578Z,6.37
2019-05-25T07:41:23.891Z,7.05
2019-05-25T07:43:53.228Z,7.03
2019-05-25T07:46:22.555Z,7.37
2019-05-25T07:48:51.911Z,7.50
2019-05-25T07:51:21.234Z,8.23
2019-05-25T07:53:50.549Z,6.30
2019-05-25T07:56:19.877Z,8.67
2019-05-25T07:58:49.272Z,6.00
2019-05-25T08:01:19.117Z,6.70
2019-05-25T08:03:48.545Z,7.10
2019-05-25T08:06:17.977Z,6.25
2019-05-25T08:08:47.270Z,7.03
2019-05-25T08:11:16.657Z,6.28
2019-05-25T08:13:46.103Z,6.30
2019-05-25T08:16:15.479Z,6.30
2019-05-25T08:18:44.809Z,6.90
2019-05-25T08:21:14.126Z,6.60
2019-05-25T08:23:43.738Z,8.10
2019-05-25T08:26:13.065Z,7.00
2019-05-25T08:28:42.414Z,7.00
2019-05-25T08:31:11.748Z,7.35
2019-05-25T08:33:41.067Z,5.60
2019-05-25T08:36:10.394Z,6.42
2019-05-25T08:38:39.826Z,5.90
2019-05-25T08:41:09.245Z,5.83
2019-05-25T08:43:38.585Z,7.12
2019-05-25T08:46:07.951Z,5.83
2019-05-25T08:48:37.281Z,5.90
2019-05-25T08:51:06.685Z,5.30
2019-05-25T08:53:41.162Z,5.33
2019-05-25T08:56:07.061Z,5.20
2019-05-25T08:58:47.942Z,5.00
2019-05-25T09:01:07.641Z,5.30
2019-05-25T09:03:36.962Z,5.75
2019-05-25T09:06:06.306Z,5.70
2019-05-25T09:08:35.626Z,5.05
2019-05-25T09:11:04.938Z,4.70
2019-05-25T09:13:34.265Z,4.50
2019-05-25T09:16:03.611Z,4.42
2019-05-25T09:18:32.925Z,4.40
2019-05-25T09:21:02.259Z,4.33
2019-05-25T09:23:31.585Z,4.10
2019-05-25T09:26:00.920Z,4.80
2019-05-25T09:28:30.261Z,4.30
2019-05-25T09:30:59.614Z,5.00
2019-05-25T09:33:28.930Z,5.43
2019-05-25T09:35:58.259Z,10.08
2019-05-25T09:38:27.691Z,5.10
2019-05-25T09:40:57.032Z,5.28
2019-05-25T09:43:26.445Z,5.10
2019-05-25T09:45:55.801Z,4.70
2019-05-25T09:48:25.128Z,3.92
2019-05-25T09:50:54.453Z,5.00
2019-05-25T09:53:23.800Z,5.40
2019-05-25T09:55:53.261Z,4.80
2019-05-25T09:58:22.660Z,4.33
2019-05-25T10:00:51.983Z,4.63
2019-05-25T10:03:21.428Z,4.43
2019-05-25T10:05:50.852Z,4.67
2019-05-25T10:08:20.900Z,4.60
2019-05-25T10:10:50.252Z,4.87
2019-05-25T10:13:19.564Z,4.70
2019-05-25T10:15:49.026Z,5.60
2019-05-25T10:18:18.661Z,5.10
2019-05-25T10:20:47.977Z,4.10
2019-05-25T10:23:17.357Z,4.90
2019-05-25T10:25:46.694Z,4.55
2019-05-25T10:28:16.057Z,5.22
2019-05-25T10:30:45.765Z,4.10
2019-05-25T10:33:15.087Z,5.08
2019-05-25T10:35:44.413Z,4.87
2019-05-25T10:38:13.759Z,4.80
2019-05-25T10:40:43.487Z,5.87
2019-05-25T10:43:13.232Z,5.47
2019-05-25T10:45:42.604Z,5.72
2019-05-25T10:48:11.941Z,5.90
2019-05-25T10:50:41.416Z,6.20
2019-05-25T10:53:10.879Z,6.67
2019-05-25T10:55:40.241Z,6.55
2019-05-25T10:58:09.586Z,6.97
2019-05-25T11:00:38.951Z,6.58
2019-05-25T11:03:08.357Z,6.62
2019-05-25T11:05:37.704Z,6.30
2019-05-25T11:08:07.084Z,5.83
2019-05-25T11:10:36.465Z,5.53
2019-05-25T11:13:05.877Z,5.30
2019-05-25T11:15:35.644Z,5.10
2019-05-25T11:18:05.306Z,4.97
2019-05-25T11:20:34.709Z,5.10
2019-05-25T11:23:04.030Z,5.10
2019-05-25T11:25:33.547Z,5.55
2019-05-25T11:28:02.891Z,6.37
2019-05-25T11:30:32.373Z,5.90
2019-05-25T11:33:01.725Z,6.42
2019-05-25T11:35:31.076Z,6.67
2019-05-25T11:38:00.415Z,7.40
2019-05-25T11:40:29.950Z,6.83
2019-05-25T11:42:59.260Z,6.60
2019-05-25T11:45:28.633Z,6.67
2019-05-25T11:47:58.085Z,6.30
2019-05-25T11:50:27.546Z,6.93
2019-05-25T11:52:56.897Z,6.77
2019-05-25T11:55:26.252Z,6.20
2019-05-25T11:57:55.573Z,7.17
2019-05-25T12:00:26.056Z,6.70
2019-05-25T12:02:55.761Z,6.93
2019-05-25T12:05:25.117Z,6.77
2019-05-25T12:07:54.480Z,6.60
2019-05-25T12:10:26.981Z,6.70
2019-05-25T12:12:56.329Z,10.77
2019-05-25T12:15:28.752Z,7.07
2019-05-25T12:17:58.517Z,7.17
2019-05-25T12:20:28.288Z,5.93
2019-05-25T12:22:57.759Z,6.00
2019-05-25T12:25:27.914Z,5.40
2019-05-25T12:27:57.234Z,5.47
2019-05-25T12:30:39.822Z,6.07
2019-05-25T12:32:57.925Z,5.70
2019-05-25T12:35:27.275Z,5.03
2019-05-25T12:37:58.811Z,5.90
2019-05-25T12:40:28.575Z,5.22
2019-05-25T12:42:57.997Z,5.12
2019-05-25T12:45:27.408Z,4.97
2019-05-25T12:47:57.384Z,5.20
2019-05-25T12:50:29.951Z,4.83
2019-05-25T12:52:59.279Z,5.20
2019-05-25T12:55:28.637Z,5.20
2019-05-25T12:57:59.919Z,4.80
2019-05-25T13:00:29.246Z,5.33
2019-05-25T13:02:58.697Z,11.65
2019-05-25T13:05:34.054Z,5.00
2019-05-25T13:07:59.885Z,4.80
2019-05-25T13:10:29.240Z,4.93
2019-05-25T13:13:02.092Z,4.87
2019-05-25T13:15:33.503Z,4.70
2019-05-25T13:18:03.307Z,5.17
2019-05-25T13:20:32.778Z,4.28
2019-05-25T13:23:05.324Z,4.37
2019-05-25T13:25:33.228Z,4.28
2019-05-25T13:28:02.684Z,4.53
2019-05-25T13:30:32.072Z,4.10
2019-05-25T13:33:01.378Z,4.12
2019-05-25T13:35:30.723Z,4.45
2019-05-25T13:38:00.505Z,4.17
2019-05-25T13:40:29.820Z,3.90
2019-05-25T13:42:59.165Z,3.90
2019-05-25T13:45:28.528Z,4.00
2019-05-25T13:47:57.830Z,3.67
2019-05-25T13:50:27.550Z,4.10
2019-05-25T13:52:56.899Z,4.07
2019-05-25T13:55:26.260Z,3.97
2019-05-25T13:57:55.594Z,3.80
2019-05-25T14:00:25.048Z,4.20
2019-05-25T14:02:54.401Z,4.43
2019-05-25T14:05:23.893Z,3.70
2019-05-25T14:07:53.242Z,4.33
2019-05-25T14:10:22.567Z,4.17
2019-05-25T14:12:52.368Z,3.77
2019-05-25T14:15:22.199Z,3.77
2019-05-25T14:17:51.649Z,4.20
2019-05-25T14:20:22.223Z,4.03
2019-05-25T14:22:51.566Z,3.67
2019-05-25T14:25:20.903Z,3.63
2019-05-25T14:27:50.265Z,3.93
2019-05-25T14:30:19.977Z,3.50
2019-05-25T14:32:49.515Z,3.90
2019-05-25T14:35:18.860Z,4.33
2019-05-25T14:37:48.193Z,4.10
2019-05-25T14:40:17.537Z,3.97
2019-05-25T14:42:47.206Z,3.63
2019-05-25T14:45:17.490Z,3.50
2019-05-25T14:47:46.906Z,4.00
2019-05-25T14:50:16.429Z,4.33
2019-05-25T14:52:48.501Z,3.80
2019-05-25T14:55:18.820Z,3.93
2019-05-25T14:57:48.173Z,3.37
2019-05-25T15:00:19.310Z,3.63
2019-05-25T15:02:48.700Z,3.63
2019-05-25T15:05:18.434Z,3.53
2019-05-25T15:07:47.779Z,3.50
2019-05-25T15:10:18.620Z,3.50
2019-05-25T15:12:47.965Z,4.63
2019-05-25T15:15:17.662Z,3.93
2019-05-25T15:17:47.363Z,3.87
2019-05-25T15:20:17.316Z,3.50
2019-05-25T15:22:47.265Z,3.77
2019-05-25T15:25:17.937Z,4.00
2019-05-25T15:27:47.342Z,3.87
2019-05-25T15:30:16.981Z,4.90
2019-05-25T15:32:46.562Z,4.43
2019-05-25T15:35:19.993Z,4.00
2019-05-25T15:37:47.613Z,4.17
2019-05-25T15:40:17.261Z,3.97
2019-05-25T15:42:46.607Z,4.13
2019-05-25T15:45:16.449Z,4.20
2019-05-25T15:47:45.857Z,4.60
2019-05-25T15:50:16.964Z,5.17
2019-05-25T15:52:46.341Z,4.30
2019-05-25T15:55:15.782Z,4.80
2019-05-25T15:57:45.141Z,5.40
2019-05-25T16:00:16.434Z,4.83
2019-05-25T16:02:45.936Z,5.73
2019-05-25T16:05:16.514Z,4.73
2019-05-25T16:07:49.510Z,5.00
2019-05-25T16:10:19.693Z,5.10
2019-05-25T16:12:49.464Z,4.90
2019-05-25T16:15:27.528Z,4.70
2019-05-25T16:17:56.935Z,4.73
2019-05-25T16:20:26.289Z,4.97
2019-05-25T16:22:56.016Z,4.97
2019-05-25T16:25:25.347Z,4.90
2019-05-25T16:27:55.055Z,5.10
2019-05-25T16:30:24.465Z,5.30
2019-05-25T16:33:11.499Z,5.00
2019-05-25T16:35:25.063Z,5.30
2019-05-25T16:37:54.673Z,5.00
2019-05-25T16:40:24.480Z,6.40
2019-05-25T16:42:53.864Z,5.23
2019-05-25T16:45:23.558Z,5.50
2019-05-25T16:47:53.285Z,6.80
2019-05-25T16:50:23.020Z,7.97
2019-05-25T16:52:54.137Z,6.13
2019-05-25T16:55:23.606Z,16.00
2019-05-25T16:57:53.036Z,5.73
2019-05-25T17:00:29.135Z,5.10
2019-05-25T17:02:59.587Z,4.67
2019-05-25T17:05:29.310Z,4.73
2019-05-25T17:07:59.019Z,4.50
2019-05-25T17:10:28.437Z,4.07
2019-05-25T17:12:57.801Z,4.27
2019-05-25T17:15:27.217Z,4.40
2019-05-25T17:17:56.630Z,4.50
2019-05-25T17:20:26.002Z,5.80
2019-05-25T17:22:55.375Z,5.33
2019-05-25T17:25:24.973Z,5.83
2019-05-25T17:27:54.295Z,7.70
2019-05-25T17:30:41.683Z,8.73
2019-05-25T17:33:11.707Z,8.23
2019-05-25T17:44:20.911Z,10.33
2019-05-25T17:46:59.123Z,5.97
2019-05-25T17:52:22.597Z,5.37
2019-05-25T17:54:50.274Z,5.67
2019-05-25T17:57:20.240Z,6.60
2019-05-25T17:59:49.594Z,7.67
2019-05-25T18:02:21.324Z,7.77
2019-05-25T18:04:50.672Z,11.93
2019-05-25T18:07:20.421Z,7.17
2019-05-25T18:09:50.625Z,7.30
2019-05-25T18:12:20.037Z,6.57
2019-05-25T18:14:49.362Z,12.93
2019-05-25T18:17:18.763Z,10.30
2019-05-25T18:19:49.933Z,11.80
2019-05-25T18:22:19.708Z,5.73
2019-05-25T18:24:49.075Z,7.10
2019-05-25T18:27:18.395Z,5.87
2019-05-25T18:29:47.777Z,6.47
2019-05-25T18:32:17.457Z,6.40
2019-05-25T18:34:46.745Z,6.20
2019-05-25T18:37:16.096Z,5.33
2019-05-25T18:39:45.619Z,5.60
2019-05-25T18:42:15.829Z,5.50
2019-05-25T18:44:47.380Z,5.77
2019-05-25T18:47:16.817Z,13.83
2019-05-25T18:49:48.183Z,6.20
2019-05-25T18:52:18.252Z,5.97
2019-05-25T18:54:47.615Z,5.83
2019-05-25T18:57:16.927Z,6.20
2019-05-25T18:59:46.258Z,6.50
2019-05-25T19:02:15.605Z,6.67
2019-05-25T19:04:54.656Z,5.60
2019-05-25T19:07:16.038Z,6.00
2019-05-25T19:09:45.395Z,6.67
2019-05-25T19:12:14.803Z,5.97
2019-05-25T19:14:44.149Z,5.40
2019-05-25T19:17:13.481Z,5.50
2019-05-25T19:19:42.870Z,6.10
2019-05-25T19:22:12.194Z,6.83
2019-05-25T19:24:41.529Z,7.00
2019-05-25T19:27:10.926Z,9.00
2019-05-25T19:29:40.522Z,10.50
2019-05-25T19:32:09.871Z,10.50
2019-05-25T19:34:39.538Z,8.67
2019-05-25T19:37:08.882Z,8.20
2019-05-25T19:39:38.580Z,7.67
2019-05-25T19:42:08.104Z,6.20
2019-05-25T19:44:37.872Z,7.27
2019-05-25T19:47:07.207Z,7.10
2019-05-25T19:49:37.543Z,5.90
2019-05-25T19:52:06.925Z,8.03
2019-05-25T19:54:36.352Z,8.20
2019-05-25T19:57:07.191Z,7.00
2019-05-25T19:59:36.652Z,7.60
2019-05-25T20:02:06.283Z,7.07
2019-05-25T20:04:35.805Z,5.97
2019-05-25T20:07:05.255Z,6.83
2019-05-25T20:09:34.592Z,8.03
2019-05-25T20:12:04.226Z,7.70
2019-05-25T20:14:33.555Z,6.77
2019-05-25T20:17:03.012Z,6.93
2019-05-25T20:19:32.474Z,8.10
2019-05-25T20:22:01.832Z,8.30
2019-05-25T20:24:32.124Z,7.80
2019-05-25T20:27:02.024Z,8.00
2019-05-25T20:29:31.395Z,7.57
2019-05-25T20:32:00.716Z,7.20
2019-05-25T20:34:30.074Z,10.07
2019-05-25T20:36:59.411Z,10.13
2019-05-25T20:39:28.767Z,13.97
2019-05-25T20:41:58.145Z,11.27
2019-05-25T20:44:27.503Z,11.13
2019-05-25T20:46:57.010Z,10.63
2019-05-25T20:49:26.368Z,10.20
2019-05-25T20:51:55.786Z,11.23
2019-05-25T20:54:25.488Z,11.37
2019-05-25T20:56:55.176Z,9.30
2019-05-25T20:59:24.544Z,9.73
2019-05-25T21:01:53.866Z,10.13
2019-05-25T21:04:24.602Z,10.47
2019-05-25T21:06:53.940Z,10.60
2019-05-25T21:09:23.509Z,10.53
2019-05-25T21:11:55.811Z,10.73
2019-05-25T21:14:24.421Z,10.23
2019-05-25T21:16:53.847Z,10.70
2019-05-25T21:19:23.198Z,10.17
2019-05-25T21:21:52.551Z,10.53
2019-05-25T21:24:21.897Z,11.00
2019-05-25T21:26:51.276Z,9.97
2019-05-25T21:29:20.634Z,9.70
2019-05-25T21:31:50.002Z,10.37
2019-05-25T21:34:19.380Z,9.87
2019-05-25T21:36:48.726Z,11.03
2019-05-25T21:39:18.074Z,10.07
2019-05-25T21:41:47.444Z,11.53
2019-05-25T21:44:17.114Z,10.17
2019-05-25T21:46:46.516Z,9.77
2019-05-25T21:49:16.814Z,9.67
2019-05-25T21:51:46.320Z,10.10
2019-05-25T21:54:15.704Z,8.70
2019-05-25T21:56:45.119Z,9.47
2019-05-25T21:59:14.551Z,9.20
2019-05-25T22:01:43.897Z,8.83
2019-05-25T22:04:13.292Z,9.37
2019-05-25T22:06:42.668Z,9.80
2019-05-25T22:09:12.061Z,8.90
2019-05-25T22:11:41.424Z,8.67
2019-05-25T22:14:10.760Z,8.20
2019-05-25T22:16:40.148Z,8.40
2019-05-25T22:19:09.497Z,8.50
2019-05-25T22:21:38.850Z,8.63
2019-05-25T22:24:08.173Z,9.33
2019-05-25T22:26:37.590Z,9.90
2019-05-25T22:29:06.982Z,10.03
2019-05-25T22:31:36.316Z,9.97
2019-05-25T22:34:05.692Z,11.70
2019-05-25T22:36:40.175Z,11.70
2019-05-25T22:39:07.836Z,11.00
2019-05-25T22:41:37.238Z,10.57
2019-05-25T22:44:06.656Z,9.83
2019-05-25T22:46:36.028Z,9.87
2019-05-25T22:49:05.392Z,9.73
2019-05-25T22:51:34.731Z,9.97
2019-05-25T22:54:04.173Z,10.83
2019-05-25T22:56:33.912Z,9.73
2019-05-25T22:59:03.272Z,9.77
2019-05-25T23:01:32.605Z,10.00
2019-05-25T23:04:02.698Z,10.43
2019-05-25T23:06:33.641Z,11.23
2019-05-25T23:09:03.021Z,11.97
2019-05-25T23:11:32.412Z,10.93
2019-05-25T23:14:01.789Z,10.23
2019-05-25T23:16:31.610Z,10.03
2019-05-25T23:19:01.393Z,10.73
2019-05-25T23:21:30.754Z,10.30
2019-05-25T23:24:00.103Z,9.90
2019-05-25T23:26:29.452Z,10.20
2019-05-25T23:28:58.926Z,9.83
2019-05-25T23:31:28.273Z,10.27
2019-05-25T23:33:57.638Z,9.87
2019-05-25T23:36:27.040Z,9.63
2019-05-25T23:38:56.396Z,11.57
2019-05-25T23:41:25.723Z,11.43
2019-05-25T23:43:55.068Z,10.20
2019-05-25T23:46:24.428Z,9.83
2019-05-25T23:48:53.823Z,14.60
2019-05-25T23:51:23.607Z,14.20
2019-05-25T23:53:52.971Z,13.30
2019-05-25T23:56:22.413Z,14.53
2019-05-25T23:58:52.135Z,11.27
